sensor_id;sensor_type;location;lat;lon;timestamp;temperature;humidity
35962;DHT22;22044;48.298;10.008;2023-02-11T00:00:27;-2.70;99.90
35962;DHT22;22044;48.298;10.008;2023-02-11T00:03:14;-2.70;99.90
35962;DHT22;22044;48.298;10.008;2023-02-11T00:06:01;-2.60;99.90
35962;DHT22;22044;48.298;10.008;2023-02-11T00:08:47;-2.70;99.90
35962;DHT22;22044;48.298;10.008;2023-02-11T00:11:33;-2.70;99.90
35962;DHT22;22044;48.298;10.008;2023-02-11T00:14:18;-2.70;99.90
35962;DHT22;22044;48.298;10.008;2023-02-11T00:17:04;-2.70;99.90
35962;DHT22;22044;48.298;10.008;2023-02-11T00:19:51;-2.60;99.90
35962;DHT22;22044;48.298;10.008;2023-02-11T00:22:37;-2.60;99.90
35962;DHT22;22044;48.298;10.008;2023-02-11T00:25:23;-2.40;99.90
35962;DHT22;22044;48.298;10.008;2023-02-11T00:28:09;-2.30;99.90
35962;DHT22;22044;48.298;10.008;2023-02-11T00:30:57;-2.30;99.90
35962;DHT22;22044;48.298;10.008;2023-02-11T00:33:45;-2.30;99.90
35962;DHT22;22044;48.298;10.008;2023-02-11T00:36:32;-2.30;99.90
35962;DHT22;22044;48.298;10.008;2023-02-11T00:39:18;-2.20;99.90
35962;DHT22;22044;48.298;10.008;2023-02-11T00:42:04;-2.30;99.90
35962;DHT22;22044;48.298;10.008;2023-02-11T00:44:52;-2.20;99.90
35962;DHT22;22044;48.298;10.008;2023-02-11T00:47:37;-2.30;99.90
35962;DHT22;22044;48.298;10.008;2023-02-11T00:50:23;-2.20;99.90
35962;DHT22;22044;48.298;10.008;2023-02-11T00:53:10;-2.20;99.90
35962;DHT22;22044;48.298;10.008;2023-02-11T00:55:56;-2.20;99.90
35962;DHT22;22044;48.298;10.008;2023-02-11T00:58:43;-2.20;99.90
35962;DHT22;22044;48.298;10.008;2023-02-11T01:01:29;-2.20;99.90
35962;DHT22;22044;48.298;10.008;2023-02-11T01:04:15;-2.20;99.90
35962;DHT22;22044;48.298;10.008;2023-02-11T01:07:00;-2.20;99.90
35962;DHT22;22044;48.298;10.008;2023-02-11T01:09:47;-2.20;99.90
35962;DHT22;22044;48.298;10.008;2023-02-11T01:12:32;-2.20;99.90
35962;DHT22;22044;48.298;10.008;2023-02-11T01:15:19;-2.20;99.90
35962;DHT22;22044;48.298;10.008;2023-02-11T01:18:06;-2.10;99.90
35962;DHT22;22044;48.298;10.008;2023-02-11T01:20:52;-2.20;99.90
35962;DHT22;22044;48.298;10.008;2023-02-11T01:23:38;-2.20;99.90
35962;DHT22;22044;48.298;10.008;2023-02-11T01:26:25;-2.20;99.90
35962;DHT22;22044;48.298;10.008;2023-02-11T01:29:10;-2.20;99.90
35962;DHT22;22044;48.298;10.008;2023-02-11T01:31:56;-2.20;99.90
35962;DHT22;22044;48.298;10.008;2023-02-11T01:34:43;-2.20;99.90
35962;DHT22;22044;48.298;10.008;2023-02-11T01:37:32;-2.20;99.90
35962;DHT22;22044;48.298;10.008;2023-02-11T01:40:17;-2.20;99.90
35962;DHT22;22044;48.298;10.008;2023-02-11T01:43:05;-2.20;99.90
35962;DHT22;22044;48.298;10.008;2023-02-11T01:46:23;-2.30;99.90
35962;DHT22;22044;48.298;10.008;2023-02-11T01:49:13;-2.50;99.90
35962;DHT22;22044;48.298;10.008;2023-02-11T01:52:03;-2.60;99.90
35962;DHT22;22044;48.298;10.008;2023-02-11T01:54:52;-2.90;99.90
35962;DHT22;22044;48.298;10.008;2023-02-11T01:57:59;-3.10;99.90
35962;DHT22;22044;48.298;10.008;2023-02-11T02:00:48;-3.30;99.90
35962;DHT22;22044;48.298;10.008;2023-02-11T02:03:36;-3.20;99.90
35962;DHT22;22044;48.298;10.008;2023-02-11T02:06:28;-3.20;99.90
35962;DHT22;22044;48.298;10.008;2023-02-11T02:09:21;-3.20;99.90
35962;DHT22;22044;48.298;10.008;2023-02-11T02:12:07;-3.00;99.90
35962;DHT22;22044;48.298;10.008;2023-02-11T02:15:22;-2.90;99.90
35962;DHT22;22044;48.298;10.008;2023-02-11T02:18:21;-3.00;99.90
35962;DHT22;22044;48.298;10.008;2023-02-11T02:25:18;-3.20;99.90
35962;DHT22;22044;48.298;10.008;2023-02-11T02:28:25;-3.20;99.90
35962;DHT22;22044;48.298;10.008;2023-02-11T02:31:32;-3.20;99.90
35962;DHT22;22044;48.298;10.008;2023-02-11T02:34:28;-3.20;99.90
35962;DHT22;22044;48.298;10.008;2023-02-11T02:37:20;-3.20;99.90
35962;DHT22;22044;48.298;10.008;2023-02-11T02:40:16;-3.20;99.90
35962;DHT22;22044;48.298;10.008;2023-02-11T02:43:03;-3.20;99.90
35962;DHT22;22044;48.298;10.008;2023-02-11T02:45:49;-3.20;99.90
35962;DHT22;22044;48.298;10.008;2023-02-11T02:48:34;-3.20;99.90
35962;DHT22;22044;48.298;10.008;2023-02-11T02:52:03;-3.20;99.90
35962;DHT22;22044;48.298;10.008;2023-02-11T02:55:24;-3.20;99.90
35962;DHT22;22044;48.298;10.008;2023-02-11T02:58:35;-3.10;99.90
35962;DHT22;22044;48.298;10.008;2023-02-11T03:01:29;-3.00;99.90
35962;DHT22;22044;48.298;10.008;2023-02-11T03:04:22;-2.90;99.90
35962;DHT22;22044;48.298;10.008;2023-02-11T03:07:20;-2.80;99.90
35962;DHT22;22044;48.298;10.008;2023-02-11T03:10:12;-2.70;99.90
35962;DHT22;22044;48.298;10.008;2023-02-11T03:12:59;-2.70;99.90
35962;DHT22;22044;48.298;10.008;2023-02-11T03:15:47;-2.70;99.90
35962;DHT22;22044;48.298;10.008;2023-02-11T03:18:35;-2.70;99.90
35962;DHT22;22044;48.298;10.008;2023-02-11T03:21:24;-2.70;99.90
35962;DHT22;22044;48.298;10.008;2023-02-11T03:24:19;-2.70;99.90
35962;DHT22;22044;48.298;10.008;2023-02-11T03:27:11;-2.70;99.90
35962;DHT22;22044;48.298;10.008;2023-02-11T03:30:05;-2.70;99.90
35962;DHT22;22044;48.298;10.008;2023-02-11T03:32:55;-2.70;99.90
35962;DHT22;22044;48.298;10.008;2023-02-11T03:35:46;-2.60;99.90
35962;DHT22;22044;48.298;10.008;2023-02-11T03:38:38;-2.60;99.90
35962;DHT22;22044;48.298;10.008;2023-02-11T03:41:30;-2.60;99.90
35962;DHT22;22044;48.298;10.008;2023-02-11T03:44:19;-2.70;99.90
35962;DHT22;22044;48.298;10.008;2023-02-11T03:47:07;-2.60;99.90
35962;DHT22;22044;48.298;10.008;2023-02-11T03:49:54;-2.60;99.90
35962;DHT22;22044;48.298;10.008;2023-02-11T03:52:41;-2.80;99.90
35962;DHT22;22044;48.298;10.008;2023-02-11T03:55:29;-2.90;99.90
35962;DHT22;22044;48.298;10.008;2023-02-11T03:58:18;-3.00;99.90
35962;DHT22;22044;48.298;10.008;2023-02-11T04:01:05;-3.10;99.90
35962;DHT22;22044;48.298;10.008;2023-02-11T04:03:53;-3.10;99.90
35962;DHT22;22044;48.298;10.008;2023-02-11T04:06:39;-3.00;99.90
35962;DHT22;22044;48.298;10.008;2023-02-11T04:09:24;-2.90;99.90
35962;DHT22;22044;48.298;10.008;2023-02-11T04:12:10;-2.90;99.90
35962;DHT22;22044;48.298;10.008;2023-02-11T04:14:57;-2.80;99.90
35962;DHT22;22044;48.298;10.008;2023-02-11T04:17:43;-2.80;99.90
35962;DHT22;22044;48.298;10.008;2023-02-11T04:20:28;-2.70;99.90
35962;DHT22;22044;48.298;10.008;2023-02-11T04:23:14;-2.70;99.90
35962;DHT22;22044;48.298;10.008;2023-02-11T04:26:00;-2.70;99.90
35962;DHT22;22044;48.298;10.008;2023-02-11T04:28:45;-2.80;99.90
35962;DHT22;22044;48.298;10.008;2023-02-11T04:31:32;-2.80;99.90
35962;DHT22;22044;48.298;10.008;2023-02-11T04:34:19;-2.80;99.90
35962;DHT22;22044;48.298;10.008;2023-02-11T04:37:05;-2.70;99.90
35962;DHT22;22044;48.298;10.008;2023-02-11T04:39:51;-2.70;99.90
35962;DHT22;22044;48.298;10.008;2023-02-11T04:42:37;-2.70;99.90
35962;DHT22;22044;48.298;10.008;2023-02-11T04:45:22;-2.70;99.90
35962;DHT22;22044;48.298;10.008;2023-02-11T04:48:09;-2.70;99.90
35962;DHT22;22044;48.298;10.008;2023-02-11T04:50:55;-2.70;99.90
35962;DHT22;22044;48.298;10.008;2023-02-11T04:53:40;-2.70;99.90
35962;DHT22;22044;48.298;10.008;2023-02-11T04:56:28;-2.70;99.90
35962;DHT22;22044;48.298;10.008;2023-02-11T04:59:14;-2.70;99.90
35962;DHT22;22044;48.298;10.008;2023-02-11T05:01:59;-2.60;99.90
35962;DHT22;22044;48.298;10.008;2023-02-11T05:04:46;-2.70;99.90
35962;DHT22;22044;48.298;10.008;2023-02-11T05:07:33;-2.60;99.90
35962;DHT22;22044;48.298;10.008;2023-02-11T05:10:18;-2.60;99.90
35962;DHT22;22044;48.298;10.008;2023-02-11T05:13:04;-2.50;99.90
35962;DHT22;22044;48.298;10.008;2023-02-11T05:15:50;-2.50;99.90
35962;DHT22;22044;48.298;10.008;2023-02-11T05:18:38;-2.50;99.90
35962;DHT22;22044;48.298;10.008;2023-02-11T05:21:25;-2.50;99.90
35962;DHT22;22044;48.298;10.008;2023-02-11T05:24:11;-2.40;99.90
35962;DHT22;22044;48.298;10.008;2023-02-11T05:26:57;-2.40;99.90
35962;DHT22;22044;48.298;10.008;2023-02-11T05:29:42;-2.40;99.90
35962;DHT22;22044;48.298;10.008;2023-02-11T05:32:28;-2.60;99.90
35962;DHT22;22044;48.298;10.008;2023-02-11T05:35:14;-2.70;99.90
35962;DHT22;22044;48.298;10.008;2023-02-11T05:38:01;-2.80;99.90
35962;DHT22;22044;48.298;10.008;2023-02-11T05:40:46;-2.80;99.90
35962;DHT22;22044;48.298;10.008;2023-02-11T05:43:32;-2.70;99.90
35962;DHT22;22044;48.298;10.008;2023-02-11T05:46:19;-2.70;99.90
35962;DHT22;22044;48.298;10.008;2023-02-11T05:49:05;-2.70;99.90
35962;DHT22;22044;48.298;10.008;2023-02-11T05:51:50;-2.70;99.90
35962;DHT22;22044;48.298;10.008;2023-02-11T05:54:37;-2.70;99.90
35962;DHT22;22044;48.298;10.008;2023-02-11T05:57:25;-2.70;99.90
35962;DHT22;22044;48.298;10.008;2023-02-11T06:00:12;-2.70;99.90
35962;DHT22;22044;48.298;10.008;2023-02-11T06:02:58;-2.70;99.90
35962;DHT22;22044;48.298;10.008;2023-02-11T06:05:44;-2.70;99.90
35962;DHT22;22044;48.298;10.008;2023-02-11T06:08:29;-2.70;99.90
35962;DHT22;22044;48.298;10.008;2023-02-11T06:11:17;-2.70;99.90
35962;DHT22;22044;48.298;10.008;2023-02-11T06:14:04;-2.60;99.90
35962;DHT22;22044;48.298;10.008;2023-02-11T06:16:50;-2.60;99.90
35962;DHT22;22044;48.298;10.008;2023-02-11T06:19:36;-2.50;99.90
35962;DHT22;22044;48.298;10.008;2023-02-11T06:22:21;-2.40;99.90
35962;DHT22;22044;48.298;10.008;2023-02-11T06:25:07;-2.40;99.90
35962;DHT22;22044;48.298;10.008;2023-02-11T06:27:55;-2.40;99.90
35962;DHT22;22044;48.298;10.008;2023-02-11T06:30:41;-2.50;99.90
35962;DHT22;22044;48.298;10.008;2023-02-11T06:33:26;-2.60;99.90
35962;DHT22;22044;48.298;10.008;2023-02-11T06:36:14;-2.70;99.90
35962;DHT22;22044;48.298;10.008;2023-02-11T06:38:59;-2.70;99.90
35962;DHT22;22044;48.298;10.008;2023-02-11T06:41:45;-2.60;99.90
35962;DHT22;22044;48.298;10.008;2023-02-11T06:44:32;-2.50;99.90
35962;DHT22;22044;48.298;10.008;2023-02-11T06:47:18;-2.40;99.90
35962;DHT22;22044;48.298;10.008;2023-02-11T06:50:04;-2.30;99.90
35962;DHT22;22044;48.298;10.008;2023-02-11T06:52:50;-2.20;99.90
35962;DHT22;22044;48.298;10.008;2023-02-11T06:55:36;-2.20;99.90
35962;DHT22;22044;48.298;10.008;2023-02-11T06:58:22;-2.10;99.90
35962;DHT22;22044;48.298;10.008;2023-02-11T07:01:11;-2.10;99.90
35962;DHT22;22044;48.298;10.008;2023-02-11T07:03:57;-2.00;99.90
35962;DHT22;22044;48.298;10.008;2023-02-11T07:06:43;-2.00;99.90
35962;DHT22;22044;48.298;10.008;2023-02-11T07:09:28;-1.90;99.90
35962;DHT22;22044;48.298;10.008;2023-02-11T07:12:14;-1.80;99.90
35962;DHT22;22044;48.298;10.008;2023-02-11T07:15:00;-1.80;99.90
35962;DHT22;22044;48.298;10.008;2023-02-11T07:17:47;-1.60;99.90
35962;DHT22;22044;48.298;10.008;2023-02-11T07:20:33;-1.60;99.90
35962;DHT22;22044;48.298;10.008;2023-02-11T07:23:18;-1.60;99.90
35962;DHT22;22044;48.298;10.008;2023-02-11T07:26:07;-1.60;99.90
35962;DHT22;22044;48.298;10.008;2023-02-11T07:28:54;-1.60;99.90
35962;DHT22;22044;48.298;10.008;2023-02-11T07:31:39;-1.60;99.90
35962;DHT22;22044;48.298;10.008;2023-02-11T07:34:27;-1.60;99.90
35962;DHT22;22044;48.298;10.008;2023-02-11T07:37:12;-1.70;99.90
35962;DHT22;22044;48.298;10.008;2023-02-11T07:39:58;-1.60;99.90
35962;DHT22;22044;48.298;10.008;2023-02-11T07:42:43;-1.60;99.90
35962;DHT22;22044;48.298;10.008;2023-02-11T07:45:29;-1.60;99.90
35962;DHT22;22044;48.298;10.008;2023-02-11T07:48:15;-1.70;99.90
35962;DHT22;22044;48.298;10.008;2023-02-11T07:51:10;-1.70;99.90
35962;DHT22;22044;48.298;10.008;2023-02-11T07:53:58;-1.60;99.90
35962;DHT22;22044;48.298;10.008;2023-02-11T07:56:44;-1.50;99.90
35962;DHT22;22044;48.298;10.008;2023-02-11T07:59:29;-1.40;99.90
35962;DHT22;22044;48.298;10.008;2023-02-11T08:02:15;-1.20;99.90
35962;DHT22;22044;48.298;10.008;2023-02-11T08:05:03;-0.60;99.90
35962;DHT22;22044;48.298;10.008;2023-02-11T08:07:51;-0.20;99.90
35962;DHT22;22044;48.298;10.008;2023-02-11T08:10:36;0.30;99.90
35962;DHT22;22044;48.298;10.008;2023-02-11T08:13:22;0.70;99.90
35962;DHT22;22044;48.298;10.008;2023-02-11T08:16:17;1.00;99.90
35962;DHT22;22044;48.298;10.008;2023-02-11T08:19:08;0.90;99.90
35962;DHT22;22044;48.298;10.008;2023-02-11T08:21:55;0.60;99.90
35962;DHT22;22044;48.298;10.008;2023-02-11T08:24:42;0.40;99.90
35962;DHT22;22044;48.298;10.008;2023-02-11T08:27:27;0.20;99.90
35962;DHT22;22044;48.298;10.008;2023-02-11T08:30:13;0.10;99.90
35962;DHT22;22044;48.298;10.008;2023-02-11T08:32:58;0.00;99.90
35962;DHT22;22044;48.298;10.008;2023-02-11T08:35:44;-0.10;99.90
35962;DHT22;22044;48.298;10.008;2023-02-11T08:38:30;-0.20;99.90
35962;DHT22;22044;48.298;10.008;2023-02-11T08:41:17;-0.20;99.90
35962;DHT22;22044;48.298;10.008;2023-02-11T08:44:03;-0.10;99.90
35962;DHT22;22044;48.298;10.008;2023-02-11T08:46:49;0.10;99.90
35962;DHT22;22044;48.298;10.008;2023-02-11T08:49:35;0.20;99.90
35962;DHT22;22044;48.298;10.008;2023-02-11T08:52:23;0.40;99.90
35962;DHT22;22044;48.298;10.008;2023-02-11T08:55:09;0.40;99.90
35962;DHT22;22044;48.298;10.008;2023-02-11T08:57:56;0.50;99.90
35962;DHT22;22044;48.298;10.008;2023-02-11T09:00:41;0.60;99.90
35962;DHT22;22044;48.298;10.008;2023-02-11T09:03:28;1.40;99.90
35962;DHT22;22044;48.298;10.008;2023-02-11T09:06:14;3.20;99.90
35962;DHT22;22044;48.298;10.008;2023-02-11T09:09:01;5.20;99.90
35962;DHT22;22044;48.298;10.008;2023-02-11T09:11:46;7.40;99.90
35962;DHT22;22044;48.298;10.008;2023-02-11T09:14:35;7.00;99.90
35962;DHT22;22044;48.298;10.008;2023-02-11T09:17:21;5.90;99.90
35962;DHT22;22044;48.298;10.008;2023-02-11T09:20:07;5.10;99.90
35962;DHT22;22044;48.298;10.008;2023-02-11T09:22:53;5.50;99.90
35962;DHT22;22044;48.298;10.008;2023-02-11T09:25:41;5.70;99.90
35962;DHT22;22044;48.298;10.008;2023-02-11T09:28:27;5.30;99.90
35962;DHT22;22044;48.298;10.008;2023-02-11T09:31:18;4.80;99.90
35962;DHT22;22044;48.298;10.008;2023-02-11T09:34:05;3.80;99.90
35962;DHT22;22044;48.298;10.008;2023-02-11T09:36:50;3.10;99.90
35962;DHT22;22044;48.298;10.008;2023-02-11T09:39:36;2.70;99.90
35962;DHT22;22044;48.298;10.008;2023-02-11T09:42:42;2.60;99.90
35962;DHT22;22044;48.298;10.008;2023-02-11T09:45:30;3.30;99.90
35962;DHT22;22044;48.298;10.008;2023-02-11T09:48:19;3.50;99.90
35962;DHT22;22044;48.298;10.008;2023-02-11T09:51:14;3.00;99.90
35962;DHT22;22044;48.298;10.008;2023-02-11T09:54:08;2.70;99.90
35962;DHT22;22044;48.298;10.008;2023-02-11T09:56:55;2.60;99.90
35962;DHT22;22044;48.298;10.008;2023-02-11T09:59:41;2.50;99.90
35962;DHT22;22044;48.298;10.008;2023-02-11T10:02:35;2.70;99.90
35962;DHT22;22044;48.298;10.008;2023-02-11T10:05:38;3.10;99.90
35962;DHT22;22044;48.298;10.008;2023-02-11T10:08:33;2.90;99.90
35962;DHT22;22044;48.298;10.008;2023-02-11T10:11:29;2.80;99.90
35962;DHT22;22044;48.298;10.008;2023-02-11T10:14:27;2.90;99.90
35962;DHT22;22044;48.298;10.008;2023-02-11T10:17:26;2.70;99.90
35962;DHT22;22044;48.298;10.008;2023-02-11T10:20:22;2.70;99.90
35962;DHT22;22044;48.298;10.008;2023-02-11T10:23:15;2.70;99.90
35962;DHT22;22044;48.298;10.008;2023-02-11T10:26:10;2.80;99.90
35962;DHT22;22044;48.298;10.008;2023-02-11T10:28:59;2.80;99.90
35962;DHT22;22044;48.298;10.008;2023-02-11T10:31:46;2.80;99.90
35962;DHT22;22044;48.298;10.008;2023-02-11T10:34:33;2.80;99.90
35962;DHT22;22044;48.298;10.008;2023-02-11T10:37:23;2.70;99.90
35962;DHT22;22044;48.298;10.008;2023-02-11T10:40:13;2.80;99.90
35962;DHT22;22044;48.298;10.008;2023-02-11T10:43:04;2.70;99.90
35962;DHT22;22044;48.298;10.008;2023-02-11T10:45:52;2.70;99.90
35962;DHT22;22044;48.298;10.008;2023-02-11T10:48:41;2.90;99.90
35962;DHT22;22044;48.298;10.008;2023-02-11T10:51:30;3.00;99.90
35962;DHT22;22044;48.298;10.008;2023-02-11T10:54:17;3.00;99.90
35962;DHT22;22044;48.298;10.008;2023-02-11T10:57:05;3.10;99.90
35962;DHT22;22044;48.298;10.008;2023-02-11T10:59:57;3.00;99.90
35962;DHT22;22044;48.298;10.008;2023-02-11T11:02:50;3.00;99.90
35962;DHT22;22044;48.298;10.008;2023-02-11T11:05:45;3.10;99.90
35962;DHT22;22044;48.298;10.008;2023-02-11T11:08:40;3.20;99.90
35962;DHT22;22044;48.298;10.008;2023-02-11T11:11:26;3.20;99.90
35962;DHT22;22044;48.298;10.008;2023-02-11T11:14:19;3.30;99.90
35962;DHT22;22044;48.298;10.008;2023-02-11T11:17:17;3.30;99.90
35962;DHT22;22044;48.298;10.008;2023-02-11T11:20:23;3.30;99.90
35962;DHT22;22044;48.298;10.008;2023-02-11T11:23:16;3.30;99.90
35962;DHT22;22044;48.298;10.008;2023-02-11T11:26:05;3.40;99.90
35962;DHT22;22044;48.298;10.008;2023-02-11T11:29:01;3.40;99.90
35962;DHT22;22044;48.298;10.008;2023-02-11T11:31:55;3.60;99.90
35962;DHT22;22044;48.298;10.008;2023-02-11T11:34:48;3.60;99.90
35962;DHT22;22044;48.298;10.008;2023-02-11T11:37:35;3.80;99.90
35962;DHT22;22044;48.298;10.008;2023-02-11T11:40:23;4.00;99.90
35962;DHT22;22044;48.298;10.008;2023-02-11T11:43:17;4.20;99.90
35962;DHT22;22044;48.298;10.008;2023-02-11T11:46:03;4.30;99.90
35962;DHT22;22044;48.298;10.008;2023-02-11T11:48:55;4.30;99.90
35962;DHT22;22044;48.298;10.008;2023-02-11T11:51:49;4.30;99.90
35962;DHT22;22044;48.298;10.008;2023-02-11T11:54:36;4.20;99.90
35962;DHT22;22044;48.298;10.008;2023-02-11T11:57:26;4.20;99.90
35962;DHT22;22044;48.298;10.008;2023-02-11T12:00:17;4.20;99.90
35962;DHT22;22044;48.298;10.008;2023-02-11T12:06:36;4.30;99.90
35962;DHT22;22044;48.298;10.008;2023-02-11T12:09:30;4.30;99.90
35962;DHT22;22044;48.298;10.008;2023-02-11T12:12:37;4.30;99.90
35962;DHT22;22044;48.298;10.008;2023-02-11T12:15:32;4.40;99.90
35962;DHT22;22044;48.298;10.008;2023-02-11T12:18:33;4.50;99.90
35962;DHT22;22044;48.298;10.008;2023-02-11T12:21:27;4.50;99.90
35962;DHT22;22044;48.298;10.008;2023-02-11T12:24:29;4.60;99.90
35962;DHT22;22044;48.298;10.008;2023-02-11T12:27:29;4.60;99.90
35962;DHT22;22044;48.298;10.008;2023-02-11T12:30:32;4.70;99.90
35962;DHT22;22044;48.298;10.008;2023-02-11T12:33:42;4.80;99.90
35962;DHT22;22044;48.298;10.008;2023-02-11T12:36:41;5.00;99.90
35962;DHT22;22044;48.298;10.008;2023-02-11T12:39:39;5.10;99.90
35962;DHT22;22044;48.298;10.008;2023-02-11T12:42:44;5.10;99.90
35962;DHT22;22044;48.298;10.008;2023-02-11T12:46:10;5.20;99.90
35962;DHT22;22044;48.298;10.008;2023-02-11T12:49:18;5.30;99.90
35962;DHT22;22044;48.298;10.008;2023-02-11T12:52:15;5.30;99.90
35962;DHT22;22044;48.298;10.008;2023-02-11T12:55:15;5.30;99.90
35962;DHT22;22044;48.298;10.008;2023-02-11T12:58:04;5.60;99.90
35962;DHT22;22044;48.298;10.008;2023-02-11T13:00:56;5.70;99.90
35962;DHT22;22044;48.298;10.008;2023-02-11T13:03:45;5.80;99.90
35962;DHT22;22044;48.298;10.008;2023-02-11T13:06:34;5.60;99.90
35962;DHT22;22044;48.298;10.008;2023-02-11T13:09:24;5.60;99.90
35962;DHT22;22044;48.298;10.008;2023-02-11T13:12:13;5.60;99.90
35962;DHT22;22044;48.298;10.008;2023-02-11T13:15:17;5.60;99.90
35962;DHT22;22044;48.298;10.008;2023-02-11T13:18:13;5.60;99.90
35962;DHT22;22044;48.298;10.008;2023-02-11T13:21:16;5.60;99.90
35962;DHT22;22044;48.298;10.008;2023-02-11T13:24:12;5.70;99.90
35962;DHT22;22044;48.298;10.008;2023-02-11T13:27:06;5.80;99.90
35962;DHT22;22044;48.298;10.008;2023-02-11T13:30:19;5.80;99.90
35962;DHT22;22044;48.298;10.008;2023-02-11T13:33:19;6.00;99.90
35962;DHT22;22044;48.298;10.008;2023-02-11T13:36:15;6.00;99.90
35962;DHT22;22044;48.298;10.008;2023-02-11T13:39:04;6.00;99.90
35962;DHT22;22044;48.298;10.008;2023-02-11T13:42:01;6.20;99.90
35962;DHT22;22044;48.298;10.008;2023-02-11T13:44:47;6.30;99.90
35962;DHT22;22044;48.298;10.008;2023-02-11T13:47:36;6.40;99.90
35962;DHT22;22044;48.298;10.008;2023-02-11T13:50:23;6.30;99.90
35962;DHT22;22044;48.298;10.008;2023-02-11T13:53:09;6.20;99.90
35962;DHT22;22044;48.298;10.008;2023-02-11T13:56:06;6.10;99.90
35962;DHT22;22044;48.298;10.008;2023-02-11T13:58:51;6.10;99.90
35962;DHT22;22044;48.298;10.008;2023-02-11T14:01:43;6.00;99.90
35962;DHT22;22044;48.298;10.008;2023-02-11T14:05:22;6.00;99.90
35962;DHT22;22044;48.298;10.008;2023-02-11T14:08:26;6.10;99.90
35962;DHT22;22044;48.298;10.008;2023-02-11T14:11:45;6.10;99.90
35962;DHT22;22044;48.298;10.008;2023-02-11T14:14:31;6.10;99.90
35962;DHT22;22044;48.298;10.008;2023-02-11T14:17:26;6.10;99.90
35962;DHT22;22044;48.298;10.008;2023-02-11T14:20:36;6.00;99.90
35962;DHT22;22044;48.298;10.008;2023-02-11T14:23:24;6.10;99.90
35962;DHT22;22044;48.298;10.008;2023-02-11T14:26:28;6.10;99.90
35962;DHT22;22044;48.298;10.008;2023-02-11T14:29:18;6.10;99.90
35962;DHT22;22044;48.298;10.008;2023-02-11T14:32:15;6.10;99.90
35962;DHT22;22044;48.298;10.008;2023-02-11T14:35:09;6.10;99.90
35962;DHT22;22044;48.298;10.008;2023-02-11T14:38:02;6.10;99.90
35962;DHT22;22044;48.298;10.008;2023-02-11T14:40:56;6.10;99.90
35962;DHT22;22044;48.298;10.008;2023-02-11T14:43:45;6.00;99.90
35962;DHT22;22044;48.298;10.008;2023-02-11T14:46:32;6.00;99.90
35962;DHT22;22044;48.298;10.008;2023-02-11T14:49:24;6.00;99.90
35962;DHT22;22044;48.298;10.008;2023-02-11T14:52:18;6.00;99.90
35962;DHT22;22044;48.298;10.008;2023-02-11T14:55:15;6.00;99.90
35962;DHT22;22044;48.298;10.008;2023-02-11T14:58:10;6.10;99.90
35962;DHT22;22044;48.298;10.008;2023-02-11T15:00:58;6.00;99.90
35962;DHT22;22044;48.298;10.008;2023-02-11T15:03:47;6.00;99.90
35962;DHT22;22044;48.298;10.008;2023-02-11T15:06:36;6.00;99.90
35962;DHT22;22044;48.298;10.008;2023-02-11T15:09:27;6.00;99.90
35962;DHT22;22044;48.298;10.008;2023-02-11T15:12:21;5.90;99.90
35962;DHT22;22044;48.298;10.008;2023-02-11T15:15:12;6.00;99.90
35962;DHT22;22044;48.298;10.008;2023-02-11T15:18:00;5.90;99.90
35962;DHT22;22044;48.298;10.008;2023-02-11T15:20:47;5.90;99.90
35962;DHT22;22044;48.298;10.008;2023-02-11T15:23:33;5.90;99.90
35962;DHT22;22044;48.298;10.008;2023-02-11T15:26:20;5.80;99.90
35962;DHT22;22044;48.298;10.008;2023-02-11T15:29:15;5.80;99.90
35962;DHT22;22044;48.298;10.008;2023-02-11T15:32:12;5.80;99.90
35962;DHT22;22044;48.298;10.008;2023-02-11T15:34:58;5.80;99.90
35962;DHT22;22044;48.298;10.008;2023-02-11T15:37:44;5.80;99.90
35962;DHT22;22044;48.298;10.008;2023-02-11T15:40:31;5.80;99.90
35962;DHT22;22044;48.298;10.008;2023-02-11T15:43:17;5.80;99.90
35962;DHT22;22044;48.298;10.008;2023-02-11T15:46:04;5.70;99.90
35962;DHT22;22044;48.298;10.008;2023-02-11T15:48:52;5.70;99.90
35962;DHT22;22044;48.298;10.008;2023-02-11T15:51:38;5.70;99.90
35962;DHT22;22044;48.298;10.008;2023-02-11T15:54:27;5.60;99.90
35962;DHT22;22044;48.298;10.008;2023-02-11T15:57:15;5.60;99.90
35962;DHT22;22044;48.298;10.008;2023-02-11T16:00:01;5.50;99.90
35962;DHT22;22044;48.298;10.008;2023-02-11T16:02:57;5.50;99.90
35962;DHT22;22044;48.298;10.008;2023-02-11T16:05:43;5.40;99.90
35962;DHT22;22044;48.298;10.008;2023-02-11T16:08:29;5.40;99.90
35962;DHT22;22044;48.298;10.008;2023-02-11T16:11:24;5.40;99.90
35962;DHT22;22044;48.298;10.008;2023-02-11T16:14:21;5.30;99.90
35962;DHT22;22044;48.298;10.008;2023-02-11T16:17:09;5.20;99.90
35962;DHT22;22044;48.298;10.008;2023-02-11T16:19:57;5.20;99.90
35962;DHT22;22044;48.298;10.008;2023-02-11T16:22:45;5.10;99.90
35962;DHT22;22044;48.298;10.008;2023-02-11T16:25:34;4.70;99.90
35962;DHT22;22044;48.298;10.008;2023-02-11T16:28:19;4.60;99.90
35962;DHT22;22044;48.298;10.008;2023-02-11T16:31:05;4.60;99.90
35962;DHT22;22044;48.298;10.008;2023-02-11T16:33:50;4.50;99.90
35962;DHT22;22044;48.298;10.008;2023-02-11T16:36:37;4.50;99.90
35962;DHT22;22044;48.298;10.008;2023-02-11T16:39:26;4.50;99.90
35962;DHT22;22044;48.298;10.008;2023-02-11T16:42:12;4.50;99.90
35962;DHT22;22044;48.298;10.008;2023-02-11T16:45:00;4.50;99.90
35962;DHT22;22044;48.298;10.008;2023-02-11T16:47:46;4.50;99.90
35962;DHT22;22044;48.298;10.008;2023-02-11T16:50:33;4.50;99.90
35962;DHT22;22044;48.298;10.008;2023-02-11T16:53:21;4.50;99.90
35962;DHT22;22044;48.298;10.008;2023-02-11T16:56:12;4.40;99.90
35962;DHT22;22044;48.298;10.008;2023-02-11T16:58:59;4.40;99.90
35962;DHT22;22044;48.298;10.008;2023-02-11T17:01:45;4.30;99.90
35962;DHT22;22044;48.298;10.008;2023-02-11T17:04:32;4.00;99.90
35962;DHT22;22044;48.298;10.008;2023-02-11T17:07:18;3.70;99.90
35962;DHT22;22044;48.298;10.008;2023-02-11T17:10:13;3.10;99.90
35962;DHT22;22044;48.298;10.008;2023-02-11T17:12:58;2.70;99.90
35962;DHT22;22044;48.298;10.008;2023-02-11T17:15:44;2.80;99.90
35962;DHT22;22044;48.298;10.008;2023-02-11T17:18:30;2.80;99.90
35962;DHT22;22044;48.298;10.008;2023-02-11T17:21:17;2.90;99.90
35962;DHT22;22044;48.298;10.008;2023-02-11T17:24:03;3.00;99.90
35962;DHT22;22044;48.298;10.008;2023-02-11T17:26:51;3.10;99.90
35962;DHT22;22044;48.298;10.008;2023-02-11T17:29:37;3.20;99.90
35962;DHT22;22044;48.298;10.008;2023-02-11T17:32:23;3.30;99.90
35962;DHT22;22044;48.298;10.008;2023-02-11T17:35:09;3.40;99.90
35962;DHT22;22044;48.298;10.008;2023-02-11T17:37:56;3.40;99.90
35962;DHT22;22044;48.298;10.008;2023-02-11T17:40:42;3.40;99.90
35962;DHT22;22044;48.298;10.008;2023-02-11T17:43:30;3.50;99.90
35962;DHT22;22044;48.298;10.008;2023-02-11T17:46:16;3.50;99.90
35962;DHT22;22044;48.298;10.008;2023-02-11T17:49:02;3.40;99.90
35962;DHT22;22044;48.298;10.008;2023-02-11T17:51:48;3.50;99.90
35962;DHT22;22044;48.298;10.008;2023-02-11T17:54:34;3.40;99.90